Terminal Aerodrome Forecast
Issued by NWS

Home | Current Version | Previous Version | Text Only | Print | Product List | Glossary On
Versions: 1 2 3 4 5 6 7 8 9
000
FTUS42 KGSP 280537
TAFAND
TAF
KAND 280537Z 2806/2906 00000KT P6SM -RA OVC080
     FM280800 00000KT P6SM -RA OVC024
     FM281000 00000KT 5SM -RA BR OVC010
      TEMPO 2810/2814 3SM RA BR BKN008 OVC012
     FM281400 19003KT 3SM -RA BR OVC007
     FM282300 23003KT P6SM -RA OVC024=

USA.gov is the U.S. government's official web portal to all federal, state and local government web resources and services.